createdAt,value
2023-03-05T00:01:11.929Z,7.73
2023-03-05T00:03:43.978Z,10.13
2023-03-05T00:06:17.419Z,12.13
2023-03-05T00:08:49.743Z,9.17
2023-03-05T00:11:21.698Z,16.33
2023-03-05T00:13:53.526Z,13.63
2023-03-05T00:16:28.168Z,17.13
2023-03-05T00:19:01.291Z,9.63
2023-03-05T00:21:36.346Z,14.60
2023-03-05T00:24:14.234Z,14.13
2023-03-05T00:26:46.638Z,8.80
2023-03-05T00:29:19.690Z,7.20
2023-03-05T00:31:51.560Z,8.87
2023-03-05T00:34:23.521Z,10.93
2023-03-05T00:36:55.912Z,9.63
2023-03-05T00:39:27.783Z,8.80
2023-03-05T00:41:59.727Z,11.53
2023-03-05T00:44:31.440Z,18.70
2023-03-05T00:47:03.199Z,6.20
2023-03-05T00:49:34.956Z,15.47
2023-03-05T00:52:06.687Z,9.50
2023-03-05T00:54:38.448Z,8.50
2023-03-05T00:57:10.202Z,13.10
2023-03-05T00:59:41.950Z,18.17
2023-03-05T01:02:13.738Z,11.50
2023-03-05T01:04:47.230Z,10.77
2023-03-05T01:07:19.186Z,15.77
2023-03-05T01:09:50.942Z,10.10
2023-03-05T01:12:22.720Z,10.77
2023-03-05T01:14:54.507Z,13.57
2023-03-05T01:17:27.180Z,9.60
2023-03-05T01:19:58.963Z,14.97
2023-03-05T01:22:30.680Z,9.70
2023-03-05T01:25:02.562Z,9.10
2023-03-05T01:27:34.547Z,11.27
2023-03-05T01:30:07.792Z,11.60
2023-03-05T01:32:39.610Z,20.20
2023-03-05T01:35:17.431Z,11.67
2023-03-05T01:37:49.219Z,17.80
2023-03-05T01:40:26.198Z,17.17
2023-03-05T01:43:14.165Z,9.40
2023-03-05T01:46:23.329Z,9.67
2023-03-05T01:49:40.331Z,10.60
2023-03-05T01:52:19.543Z,18.17
2023-03-05T01:54:55.816Z,8.63
2023-03-05T01:57:33.369Z,18.93
2023-03-05T02:00:11.644Z,10.20
2023-03-05T02:02:49.025Z,13.40
2023-03-05T02:05:29.005Z,11.70
2023-03-05T02:08:03.139Z,11.43
2023-03-05T02:10:42.070Z,18.00
2023-03-05T02:13:17.918Z,9.90
2023-03-05T02:15:50.362Z,20.03
2023-03-05T02:18:22.651Z,12.33
2023-03-05T02:20:57.329Z,14.40
2023-03-05T02:23:33.719Z,11.27
2023-03-05T02:26:10.644Z,16.67
2023-03-05T02:28:50.675Z,14.03
2023-03-05T02:31:25.132Z,13.00
2023-03-05T02:33:57.220Z,12.33
2023-03-05T02:36:30.259Z,20.77
2023-03-05T02:39:02.622Z,13.83
2023-03-05T02:41:34.444Z,14.93
2023-03-05T02:44:06.308Z,12.77
2023-03-05T02:46:38.394Z,15.27
2023-03-05T02:49:10.177Z,16.20
2023-03-05T02:51:41.920Z,13.17
2023-03-05T02:54:13.908Z,13.27
2023-03-05T02:56:45.810Z,13.23
2023-03-05T02:59:17.543Z,27.03
2023-03-05T03:01:49.428Z,10.10
2023-03-05T03:04:21.127Z,14.33
2023-03-05T03:06:52.998Z,14.37
2023-03-05T03:09:25.964Z,17.70
2023-03-05T03:11:57.702Z,10.63
2023-03-05T03:14:39.171Z,18.77
2023-03-05T03:17:16.170Z,17.23
2023-03-05T03:19:48.164Z,22.87
2023-03-05T03:22:19.894Z,13.00
2023-03-05T03:24:51.650Z,11.83
2023-03-05T03:27:23.929Z,13.13
2023-03-05T03:29:55.747Z,12.13
2023-03-05T03:32:27.490Z,14.23
2023-03-05T03:34:59.583Z,12.50
2023-03-05T03:37:31.326Z,15.87
2023-03-05T03:40:05.671Z,15.40
2023-03-05T03:42:37.439Z,11.83
2023-03-05T03:45:09.563Z,10.60
2023-03-05T03:47:41.278Z,22.40
2023-03-05T03:50:13.044Z,11.30
2023-03-05T03:52:44.890Z,16.53
2023-03-05T03:55:16.653Z,19.90
2023-03-05T03:57:48.351Z,14.00
2023-03-05T04:00:20.437Z,18.13
2023-03-05T04:02:52.271Z,16.67
2023-03-05T04:05:24.210Z,13.00
2023-03-05T04:07:57.639Z,11.67
2023-03-05T04:10:29.527Z,16.60
2023-03-05T04:13:01.308Z,12.43
2023-03-05T04:15:34.956Z,10.10
2023-03-05T04:18:06.857Z,11.00
2023-03-05T04:20:38.588Z,13.40
2023-03-05T04:23:10.399Z,24.47
2023-03-05T04:25:42.124Z,10.37
2023-03-05T04:28:15.918Z,12.57
2023-03-05T04:30:47.827Z,15.70
2023-03-05T04:33:19.943Z,9.47
2023-03-05T04:35:52.228Z,14.33
2023-03-05T04:38:23.966Z,15.53
2023-03-05T04:40:55.673Z,26.60
2023-03-05T04:43:27.427Z,14.27
2023-03-05T04:45:59.151Z,18.07
2023-03-05T04:48:30.874Z,11.97
2023-03-05T04:51:02.809Z,16.93
2023-03-05T04:53:35.260Z,20.60
2023-03-05T04:56:07.509Z,20.63
2023-03-05T04:58:39.246Z,21.93
2023-03-05T05:01:11.037Z,13.33
2023-03-05T05:03:42.736Z,11.37
2023-03-05T05:06:14.463Z,11.13
2023-03-05T05:08:46.157Z,13.93
2023-03-05T05:11:18.149Z,21.80
2023-03-05T05:13:49.894Z,19.73
2023-03-05T05:16:21.730Z,11.57
2023-03-05T05:18:53.478Z,13.73
2023-03-05T05:21:25.189Z,15.53
2023-03-05T05:23:56.971Z,21.47
2023-03-05T05:26:28.732Z,15.00
2023-03-05T05:29:00.467Z,10.57
2023-03-05T05:31:32.283Z,16.50
2023-03-05T05:34:04.037Z,16.10
2023-03-05T05:36:35.763Z,16.23
2023-03-05T05:39:07.594Z,15.23
2023-03-05T05:41:39.385Z,14.87
2023-03-05T05:44:11.209Z,13.80
2023-03-05T05:46:42.980Z,13.70
2023-03-05T05:49:14.793Z,13.17
2023-03-05T05:51:46.502Z,15.30
2023-03-05T05:54:18.229Z,13.83
2023-03-05T05:56:49.936Z,22.23
2023-03-05T05:59:21.691Z,15.43
2023-03-05T06:01:53.470Z,18.57
2023-03-05T06:04:25.246Z,16.90
2023-03-05T06:06:58.201Z,18.70
2023-03-05T06:09:29.971Z,13.67
2023-03-05T06:12:01.764Z,24.10
2023-03-05T06:14:33.516Z,19.80
2023-03-05T06:17:05.313Z,16.57
2023-03-05T06:19:37.005Z,16.10
2023-03-05T06:22:08.878Z,10.17
2023-03-05T06:24:40.742Z,12.47
2023-03-05T06:27:12.484Z,15.93
2023-03-05T06:29:44.215Z,18.57
2023-03-05T06:32:15.977Z,11.70
2023-03-05T06:34:47.819Z,12.83
2023-03-05T06:37:19.639Z,9.33
2023-03-05T06:39:51.364Z,22.93
2023-03-05T06:42:23.135Z,14.70
2023-03-05T06:44:54.841Z,11.33
2023-03-05T06:47:26.600Z,18.60
2023-03-05T06:49:58.308Z,11.03
2023-03-05T06:52:30.028Z,12.57
2023-03-05T06:55:01.762Z,12.03
2023-03-05T06:57:33.670Z,13.17
2023-03-05T07:00:09.945Z,19.67
2023-03-05T07:02:41.712Z,13.80
2023-03-05T07:05:13.586Z,9.30
2023-03-05T07:07:45.285Z,12.77
2023-03-05T07:10:17.085Z,13.47
2023-03-05T07:12:48.859Z,12.03
2023-03-05T07:15:20.664Z,17.10
2023-03-05T07:17:52.381Z,16.73
2023-03-05T07:20:24.100Z,20.63
2023-03-05T07:22:55.856Z,22.37
2023-03-05T07:25:27.711Z,14.93
2023-03-05T07:27:59.451Z,15.53
2023-03-05T07:30:31.612Z,11.90
2023-03-05T07:33:03.669Z,10.17
2023-03-05T07:35:40.427Z,11.93
2023-03-05T07:38:12.139Z,9.57
2023-03-05T07:40:43.839Z,14.90
2023-03-05T07:43:16.213Z,19.80
2023-03-05T07:45:49.014Z,16.97
2023-03-05T07:48:23.780Z,8.37
2023-03-05T07:51:10.325Z,12.47
2023-03-05T07:53:46.244Z,10.33
2023-03-05T07:56:24.166Z,11.13
2023-03-05T07:58:55.919Z,13.87
2023-03-05T08:01:29.132Z,11.40
2023-03-05T08:04:01.434Z,11.40
2023-03-05T08:06:33.387Z,10.97
2023-03-05T08:09:05.136Z,10.90
2023-03-05T08:11:36.828Z,11.70
2023-03-05T08:14:09.604Z,12.30
2023-03-05T08:16:41.349Z,13.43
2023-03-05T08:19:13.085Z,14.37
2023-03-05T08:21:45.365Z,13.13
2023-03-05T08:24:17.229Z,10.77
2023-03-05T08:26:49.225Z,10.50
2023-03-05T08:29:21.155Z,12.10
2023-03-05T08:31:55.552Z,11.90
2023-03-05T08:34:27.338Z,6.93
2023-03-05T08:36:59.062Z,8.50
2023-03-05T08:39:30.767Z,10.93
2023-03-05T08:42:03.587Z,13.93
2023-03-05T08:44:35.316Z,10.83
2023-03-05T08:47:07.137Z,13.20
2023-03-05T08:49:39.238Z,12.30
2023-03-05T08:52:11.045Z,8.60
2023-03-05T08:54:42.802Z,10.50
2023-03-05T08:57:14.515Z,10.77
2023-03-05T08:59:46.239Z,10.10
2023-03-05T09:02:18.916Z,5.70
2023-03-05T09:04:50.622Z,11.37
2023-03-05T09:07:22.347Z,4.77
2023-03-05T09:09:54.047Z,6.67
2023-03-05T09:12:25.744Z,11.23
2023-03-05T09:14:57.512Z,8.27
2023-03-05T09:17:29.276Z,9.77
2023-03-05T09:20:01.715Z,9.17
2023-03-05T09:22:33.580Z,17.07
2023-03-05T09:25:06.071Z,11.37
2023-03-05T09:27:38.423Z,10.27
2023-03-05T09:30:12.105Z,15.27
2023-03-05T09:32:43.908Z,14.83
2023-03-05T09:35:15.635Z,13.80
2023-03-05T09:37:47.412Z,20.93
2023-03-05T09:40:20.254Z,17.33
2023-03-05T09:43:13.098Z,13.07
2023-03-05T09:46:09.960Z,9.40
2023-03-05T09:48:51.969Z,12.17
2023-03-05T09:51:34.887Z,14.53
2023-03-05T09:54:13.321Z,17.00
2023-03-05T09:56:53.176Z,19.97
2023-03-05T10:00:08.087Z,13.17
2023-03-05T10:02:53.563Z,11.60
2023-03-05T10:05:33.276Z,9.47
2023-03-05T10:08:06.117Z,14.40
2023-03-05T10:10:44.330Z,12.93
2023-03-05T10:13:26.946Z,8.43
2023-03-05T10:16:23.255Z,13.67
2023-03-05T10:19:11.425Z,12.43
2023-03-05T10:21:53.693Z,16.07
2023-03-05T10:24:55.243Z,14.83
2023-03-05T10:27:54.169Z,12.70
2023-03-05T10:30:54.701Z,8.13
2023-03-05T10:33:33.660Z,16.57
2023-03-05T10:36:31.995Z,15.60
2023-03-05T10:39:31.148Z,11.63
2023-03-05T10:42:07.999Z,14.03
2023-03-05T10:44:43.861Z,15.03
2023-03-05T10:47:41.124Z,8.77
2023-03-05T10:50:26.172Z,23.70
2023-03-05T10:53:26.602Z,9.00
2023-03-05T10:56:03.778Z,11.60
2023-03-05T10:58:35.452Z,9.10
2023-03-05T11:01:25.109Z,10.20
2023-03-05T11:04:05.406Z,11.63
2023-03-05T11:06:48.209Z,9.70
2023-03-05T11:09:29.265Z,11.00
2023-03-05T11:12:08.344Z,14.43
2023-03-05T11:15:02.304Z,11.30
2023-03-05T11:17:44.439Z,12.53
2023-03-05T11:20:34.575Z,15.87
2023-03-05T11:23:20.114Z,10.00
2023-03-05T11:25:57.687Z,8.97
2023-03-05T11:28:41.825Z,13.10
2023-03-05T11:31:16.675Z,17.97
2023-03-05T11:34:05.200Z,19.37
2023-03-05T11:36:39.356Z,12.60
2023-03-05T11:39:16.924Z,9.63
2023-03-05T11:41:56.058Z,12.83
2023-03-05T11:44:46.767Z,12.03
2023-03-05T11:47:43.233Z,9.57
2023-03-05T11:50:25.575Z,12.97
2023-03-05T11:53:21.775Z,9.33
2023-03-05T11:55:59.897Z,10.67
2023-03-05T11:58:37.211Z,7.73
2023-03-05T12:01:33.557Z,7.20
2023-03-05T12:04:05.488Z,12.87
2023-03-05T12:06:57.724Z,8.70
2023-03-05T12:09:42.221Z,5.93
2023-03-05T12:12:40.852Z,12.27
2023-03-05T12:15:12.634Z,6.40
2023-03-05T12:18:14.399Z,8.70
2023-03-05T12:21:04.459Z,15.90
2023-03-05T12:23:51.746Z,7.93
2023-03-05T12:27:02.073Z,13.57
2023-03-05T12:29:43.184Z,16.67
2023-03-05T12:32:31.410Z,6.13
2023-03-05T12:35:22.527Z,16.30
2023-03-05T12:37:54.312Z,5.37
2023-03-05T12:40:34.314Z,6.50
2023-03-05T12:43:29.961Z,7.93
2023-03-05T12:46:40.700Z,14.13
2023-03-05T12:49:18.194Z,8.37
2023-03-05T12:51:52.235Z,9.40
2023-03-05T12:54:39.812Z,6.37
2023-03-05T12:57:20.277Z,8.77
2023-03-05T13:00:22.619Z,15.43
2023-03-05T13:02:58.746Z,10.10
2023-03-05T13:05:34.229Z,9.67
2023-03-05T13:08:22.762Z,7.23
2023-03-05T13:11:00.591Z,6.50
2023-03-05T13:13:38.752Z,7.50
2023-03-05T13:16:19.660Z,16.33
2023-03-05T13:18:53.558Z,4.27
2023-03-05T13:21:28.960Z,11.03
2023-03-05T13:24:03.152Z,3.60
2023-03-05T13:26:40.381Z,9.27
2023-03-05T13:29:18.223Z,7.00
2023-03-05T13:31:54.719Z,3.63
2023-03-05T13:34:37.448Z,6.73
2023-03-05T13:37:18.099Z,8.33
2023-03-05T13:39:57.606Z,6.37
2023-03-05T13:42:34.829Z,8.80
2023-03-05T13:45:20.574Z,5.33
2023-03-05T13:47:56.689Z,5.60
2023-03-05T13:50:32.426Z,7.50
2023-03-05T13:53:25.080Z,5.80
2023-03-05T13:56:00.162Z,2.90
2023-03-05T13:58:52.816Z,5.70
2023-03-05T14:01:41.656Z,6.17
2023-03-05T14:04:13.354Z,3.20
2023-03-05T14:06:47.823Z,2.17
2023-03-05T14:09:22.392Z,6.73
2023-03-05T14:11:54.156Z,4.00
2023-03-05T14:14:27.177Z,3.30
2023-03-05T14:17:21.936Z,3.33
2023-03-05T14:20:24.025Z,1.93
2023-03-05T14:22:58.705Z,1.37
2023-03-05T14:25:42.007Z,3.47
2023-03-05T14:28:16.454Z,1.43
2023-03-05T14:30:52.336Z,3.03
2023-03-05T14:33:31.656Z,6.50
2023-03-05T14:36:04.544Z,1.10
2023-03-05T14:38:40.711Z,1.73
2023-03-05T14:41:22.789Z,2.67
2023-03-05T14:43:55.962Z,4.00
2023-03-05T14:46:28.936Z,2.90
2023-03-05T14:49:00.716Z,2.07
2023-03-05T14:51:37.433Z,4.20
2023-03-05T14:54:22.524Z,1.43
2023-03-05T14:56:54.393Z,1.50
2023-03-05T14:59:26.150Z,5.30
2023-03-05T15:01:58.049Z,2.53
2023-03-05T15:04:29.811Z,2.27
2023-03-05T15:07:01.531Z,4.20
2023-03-05T15:09:33.373Z,5.70
2023-03-05T15:12:05.470Z,1.77
2023-03-05T15:14:37.170Z,8.90
2023-03-05T15:17:19.328Z,0.93
2023-03-05T15:19:51.095Z,3.23
2023-03-05T15:22:22.827Z,9.47
2023-03-05T15:24:54.536Z,1.37
2023-03-05T15:27:26.240Z,0.97
2023-03-05T15:29:59.549Z,1.20
2023-03-05T15:32:31.573Z,3.63
2023-03-05T15:35:03.497Z,3.87
2023-03-05T15:37:35.199Z,3.07
2023-03-05T15:40:07.524Z,3.73
2023-03-05T15:42:39.578Z,3.40
2023-03-05T15:45:11.391Z,2.53
2023-03-05T15:47:43.088Z,3.57
2023-03-05T15:50:14.784Z,6.60
2023-03-05T15:52:46.628Z,10.03
2023-03-05T15:55:18.445Z,2.33
2023-03-05T15:57:52.005Z,2.43
2023-03-05T16:00:29.107Z,2.23
2023-03-05T16:03:00.935Z,7.17
2023-03-05T16:05:35.317Z,3.00
2023-03-05T16:08:07.727Z,2.23
2023-03-05T16:10:40.962Z,4.23
2023-03-05T16:13:15.967Z,3.03
2023-03-05T16:15:52.806Z,4.97
2023-03-05T16:18:25.424Z,4.33
2023-03-05T16:20:57.515Z,5.33
2023-03-05T16:23:29.538Z,8.70
2023-03-05T16:26:01.242Z,8.53
2023-03-05T16:28:32.974Z,5.90
2023-03-05T16:31:05.259Z,10.50
2023-03-05T16:33:36.955Z,6.70
2023-03-05T16:36:11.510Z,12.03
2023-03-05T16:38:43.225Z,4.00
2023-03-05T16:41:16.595Z,3.47
2023-03-05T16:43:48.307Z,4.50
2023-03-05T16:46:20.368Z,5.67
2023-03-05T16:48:52.359Z,3.87
2023-03-05T16:51:24.733Z,3.97
2023-03-05T16:53:56.698Z,3.27
2023-03-05T16:56:28.464Z,10.83
2023-03-05T16:59:00.280Z,5.83
2023-03-05T17:01:32.507Z,6.80
2023-03-05T17:04:04.403Z,4.30
2023-03-05T17:06:36.160Z,2.93
2023-03-05T17:09:07.916Z,9.83
2023-03-05T17:11:40.186Z,7.57
2023-03-05T17:14:12.112Z,9.97
2023-03-05T17:16:44.112Z,11.13
2023-03-05T17:19:16.802Z,8.97
2023-03-05T17:21:51.080Z,5.33
2023-03-05T17:24:23.356Z,10.37
2023-03-05T17:26:55.112Z,8.83
2023-03-05T17:29:26.891Z,7.00
2023-03-05T17:31:58.716Z,10.97
2023-03-05T17:34:36.472Z,5.60
2023-03-05T17:37:08.712Z,5.40
2023-03-05T17:39:43.664Z,5.87
2023-03-05T17:42:15.801Z,5.97
2023-03-05T17:47:26.322Z,7.67
2023-03-05T17:49:58.478Z,7.67
2023-03-05T17:52:30.332Z,7.27
2023-03-05T17:55:02.329Z,4.40
2023-03-05T17:57:34.432Z,5.33
2023-03-05T18:00:07.930Z,5.10
2023-03-05T18:02:43.931Z,4.67
2023-03-05T18:05:15.851Z,5.10
2023-03-05T18:07:48.421Z,7.83
2023-03-05T18:10:21.648Z,8.13
2023-03-05T18:12:54.247Z,3.73
2023-03-05T18:15:27.525Z,9.50
2023-03-05T18:18:00.061Z,5.93
2023-03-05T18:20:37.351Z,8.03
2023-03-05T18:23:09.860Z,19.97
2023-03-05T18:25:41.828Z,14.83
2023-03-05T18:28:16.020Z,7.63
2023-03-05T18:30:48.013Z,5.37
2023-03-05T18:33:23.601Z,3.97
2023-03-05T18:35:57.502Z,9.00
2023-03-05T18:38:31.373Z,4.33
2023-03-05T18:41:03.425Z,7.20
2023-03-05T18:43:35.621Z,4.67
2023-03-05T18:46:08.366Z,2.87
2023-03-05T18:48:40.253Z,2.70
2023-03-05T18:51:17.561Z,3.23
2023-03-05T18:53:51.092Z,1.97
2023-03-05T18:56:23.702Z,2.23
2023-03-05T18:58:56.978Z,3.23
2023-03-05T19:01:29.803Z,2.50
2023-03-05T19:04:01.608Z,2.27
2023-03-05T19:06:35.481Z,3.30
2023-03-05T19:09:16.942Z,5.17
2023-03-05T19:11:48.728Z,4.53
2023-03-05T19:14:20.442Z,5.23
2023-03-05T19:16:52.177Z,4.07
2023-03-05T19:19:24.535Z,4.53
2023-03-05T19:21:59.637Z,2.60
2023-03-05T19:24:32.413Z,2.27
2023-03-05T19:27:10.979Z,5.50
2023-03-05T19:29:43.685Z,3.60
2023-03-05T19:32:17.876Z,2.53
2023-03-05T19:34:50.422Z,4.60
2023-03-05T19:37:22.306Z,4.10
2023-03-05T19:39:54.232Z,6.40
2023-03-05T19:42:25.979Z,11.83
2023-03-05T19:44:59.948Z,2.63
2023-03-05T19:47:32.176Z,2.57
2023-03-05T19:50:05.356Z,4.43
2023-03-05T19:52:37.092Z,3.43
2023-03-05T19:55:09.500Z,14.33
2023-03-05T19:57:41.415Z,6.23
2023-03-05T20:00:14.712Z,6.67
2023-03-05T20:02:48.500Z,6.97
2023-03-05T20:05:23.009Z,3.13
2023-03-05T20:07:54.725Z,3.57
2023-03-05T20:10:26.620Z,5.67
2023-03-05T20:12:58.404Z,3.23
2023-03-05T20:15:30.244Z,2.83
2023-03-05T20:18:01.942Z,8.00
2023-03-05T20:20:33.670Z,4.53
2023-03-05T20:23:05.463Z,4.40
2023-03-05T20:25:40.047Z,5.57
2023-03-05T20:28:11.774Z,3.30
2023-03-05T20:30:43.902Z,2.93
2023-03-05T20:33:15.682Z,3.57
2023-03-05T20:35:47.417Z,6.33
2023-03-05T20:38:21.074Z,3.50
2023-03-05T20:40:55.891Z,2.70
2023-03-05T20:43:36.617Z,4.30
2023-03-05T20:46:32.820Z,4.40
2023-03-05T20:49:04.942Z,6.03
2023-03-05T20:51:38.095Z,3.53
2023-03-05T20:54:12.999Z,5.93
2023-03-05T20:56:44.795Z,3.63
2023-03-05T20:59:17.556Z,2.30
2023-03-05T21:01:49.386Z,5.07
2023-03-05T21:04:21.179Z,3.33
2023-03-05T21:06:53.245Z,6.83
2023-03-05T21:09:25.137Z,7.50
2023-03-05T21:11:56.859Z,6.07
2023-03-05T21:14:28.551Z,3.43
2023-03-05T21:17:00.314Z,4.37
2023-03-05T21:19:33.766Z,5.53
2023-03-05T21:22:05.605Z,3.13
2023-03-05T21:24:53.452Z,3.80
2023-03-05T21:27:25.146Z,5.00
2023-03-05T21:29:56.960Z,8.23
2023-03-05T21:32:28.781Z,3.00
2023-03-05T21:35:00.582Z,9.33
2023-03-05T21:37:32.527Z,2.57
2023-03-05T21:40:04.579Z,4.27
2023-03-05T21:42:36.309Z,4.50
2023-03-05T21:45:09.785Z,3.03
2023-03-05T21:47:41.678Z,4.00
2023-03-05T21:50:14.746Z,9.73
2023-03-05T21:52:46.684Z,3.33
2023-03-05T21:55:22.566Z,3.40
2023-03-05T21:57:54.265Z,6.33
2023-03-05T22:00:27.022Z,4.00
2023-03-05T22:02:58.781Z,11.27
2023-03-05T22:05:30.537Z,7.70
2023-03-05T22:08:02.292Z,3.53
2023-03-05T22:10:34.260Z,4.50
2023-03-05T22:13:09.966Z,3.43
2023-03-05T22:15:47.091Z,5.33
2023-03-05T22:18:24.652Z,5.63
2023-03-05T22:20:57.677Z,4.60
2023-03-05T22:23:33.963Z,6.77
2023-03-05T22:26:07.805Z,3.27
2023-03-05T22:28:39.613Z,4.23
2023-03-05T22:31:11.856Z,3.47
2023-03-05T22:33:43.868Z,8.40
2023-03-05T22:36:15.704Z,3.67
2023-03-05T22:38:47.582Z,3.20
2023-03-05T22:41:20.780Z,3.57
2023-03-05T22:43:52.578Z,2.70
2023-03-05T22:46:26.435Z,4.00
2023-03-05T22:48:58.217Z,1.93
2023-03-05T22:51:30.039Z,1.97
2023-03-05T22:54:01.865Z,5.20
2023-03-05T22:56:33.697Z,6.80
2023-03-05T22:59:05.423Z,5.47
2023-03-05T23:01:37.201Z,2.40
2023-03-05T23:04:18.681Z,7.50
2023-03-05T23:06:50.409Z,3.47
2023-03-05T23:09:22.345Z,3.67
2023-03-05T23:11:54.070Z,4.87
2023-03-05T23:14:25.864Z,4.73
2023-03-05T23:16:57.626Z,5.80
2023-03-05T23:19:29.615Z,7.03
2023-03-05T23:22:01.315Z,4.50
2023-03-05T23:24:34.025Z,3.67
2023-03-05T23:27:06.784Z,4.50
2023-03-05T23:29:48.183Z,5.93
2023-03-05T23:32:19.958Z,3.93
2023-03-05T23:34:51.681Z,10.30
2023-03-05T23:37:23.538Z,3.80
2023-03-05T23:39:55.264Z,4.10
2023-03-05T23:42:26.951Z,3.40
2023-03-05T23:44:58.942Z,5.70
2023-03-05T23:47:30.753Z,3.63
2023-03-05T23:50:07.598Z,3.37
2023-03-05T23:52:39.815Z,3.73
2023-03-05T23:55:40.621Z,3.93
2023-03-05T23:58:13.355Z,4.87
